sensor_id;sensor_type;location;lat;lon;timestamp;temperature;humidity
15182;DHT22;7692;50.602;8.692;2023-12-14T00:01:29;5.50;99.90
15182;DHT22;7692;50.602;8.692;2023-12-14T00:03:57;5.50;99.90
15182;DHT22;7692;50.602;8.692;2023-12-14T00:06:25;5.50;99.90
15182;DHT22;7692;50.602;8.692;2023-12-14T00:08:54;5.50;99.90
15182;DHT22;7692;50.602;8.692;2023-12-14T00:11:23;5.50;99.90
15182;DHT22;7692;50.602;8.692;2023-12-14T00:13:51;5.50;99.90
15182;DHT22;7692;50.602;8.692;2023-12-14T00:16:19;5.40;99.90
15182;DHT22;7692;50.602;8.692;2023-12-14T00:18:47;5.50;99.90
15182;DHT22;7692;50.602;8.692;2023-12-14T00:21:16;5.40;99.90
15182;DHT22;7692;50.602;8.692;2023-12-14T00:23:44;5.40;99.90
15182;DHT22;7692;50.602;8.692;2023-12-14T00:26:13;5.40;99.90
15182;DHT22;7692;50.602;8.692;2023-12-14T00:28:42;5.40;99.90
15182;DHT22;7692;50.602;8.692;2023-12-14T00:31:10;5.40;99.90
15182;DHT22;7692;50.602;8.692;2023-12-14T00:33:38;5.40;99.90
15182;DHT22;7692;50.602;8.692;2023-12-14T00:36:07;5.40;99.90
15182;DHT22;7692;50.602;8.692;2023-12-14T00:38:36;5.40;99.90
15182;DHT22;7692;50.602;8.692;2023-12-14T00:41:06;5.40;99.90
15182;DHT22;7692;50.602;8.692;2023-12-14T00:43:35;5.40;99.90
15182;DHT22;7692;50.602;8.692;2023-12-14T00:46:07;5.40;99.90
15182;DHT22;7692;50.602;8.692;2023-12-14T00:48:36;5.40;99.90
15182;DHT22;7692;50.602;8.692;2023-12-14T00:51:04;5.40;99.90
15182;DHT22;7692;50.602;8.692;2023-12-14T00:53:33;5.40;99.90
15182;DHT22;7692;50.602;8.692;2023-12-14T00:56:01;5.40;99.90
15182;DHT22;7692;50.602;8.692;2023-12-14T00:58:29;5.40;99.90
15182;DHT22;7692;50.602;8.692;2023-12-14T01:00:57;5.40;99.90
15182;DHT22;7692;50.602;8.692;2023-12-14T01:03:27;5.40;99.90
15182;DHT22;7692;50.602;8.692;2023-12-14T01:05:55;5.40;99.90
15182;DHT22;7692;50.602;8.692;2023-12-14T01:08:23;5.40;99.90
15182;DHT22;7692;50.602;8.692;2023-12-14T01:10:51;5.40;99.90
15182;DHT22;7692;50.602;8.692;2023-12-14T01:13:20;5.40;99.90
15182;DHT22;7692;50.602;8.692;2023-12-14T01:15:48;5.40;99.90
15182;DHT22;7692;50.602;8.692;2023-12-14T01:18:16;5.40;99.90
15182;DHT22;7692;50.602;8.692;2023-12-14T01:20:46;5.40;99.90
15182;DHT22;7692;50.602;8.692;2023-12-14T01:23:14;5.40;99.90
15182;DHT22;7692;50.602;8.692;2023-12-14T01:25:42;5.40;99.90
15182;DHT22;7692;50.602;8.692;2023-12-14T01:28:10;5.40;99.90
15182;DHT22;7692;50.602;8.692;2023-12-14T01:30:40;5.40;99.90
15182;DHT22;7692;50.602;8.692;2023-12-14T01:33:09;5.40;99.90
15182;DHT22;7692;50.602;8.692;2023-12-14T01:35:37;5.40;99.90
15182;DHT22;7692;50.602;8.692;2023-12-14T01:38:06;5.40;99.90
15182;DHT22;7692;50.602;8.692;2023-12-14T01:40:34;5.30;99.90
15182;DHT22;7692;50.602;8.692;2023-12-14T01:43:07;5.40;99.90
15182;DHT22;7692;50.602;8.692;2023-12-14T01:45:36;5.40;99.90
15182;DHT22;7692;50.602;8.692;2023-12-14T01:48:04;5.40;99.90
15182;DHT22;7692;50.602;8.692;2023-12-14T01:50:33;5.40;99.90
15182;DHT22;7692;50.602;8.692;2023-12-14T01:53:01;5.40;99.90
15182;DHT22;7692;50.602;8.692;2023-12-14T01:55:31;5.40;99.90
15182;DHT22;7692;50.602;8.692;2023-12-14T01:57:59;5.40;99.90
15182;DHT22;7692;50.602;8.692;2023-12-14T02:00:34;5.40;99.90
15182;DHT22;7692;50.602;8.692;2023-12-14T02:03:03;5.40;99.90
15182;DHT22;7692;50.602;8.692;2023-12-14T02:05:32;5.40;99.90
15182;DHT22;7692;50.602;8.692;2023-12-14T02:08:00;5.30;99.90
15182;DHT22;7692;50.602;8.692;2023-12-14T02:10:29;5.40;99.90
15182;DHT22;7692;50.602;8.692;2023-12-14T02:12:58;5.40;99.90
15182;DHT22;7692;50.602;8.692;2023-12-14T02:15:28;5.30;99.90
15182;DHT22;7692;50.602;8.692;2023-12-14T02:17:57;5.30;99.90
15182;DHT22;7692;50.602;8.692;2023-12-14T02:20:25;5.30;99.90
15182;DHT22;7692;50.602;8.692;2023-12-14T02:22:54;5.40;99.90
15182;DHT22;7692;50.602;8.692;2023-12-14T02:25:23;5.30;99.90
15182;DHT22;7692;50.602;8.692;2023-12-14T02:27:51;5.40;99.90
15182;DHT22;7692;50.602;8.692;2023-12-14T02:30:20;5.40;99.90
15182;DHT22;7692;50.602;8.692;2023-12-14T02:32:48;5.40;99.90
15182;DHT22;7692;50.602;8.692;2023-12-14T02:35:16;5.40;99.90
15182;DHT22;7692;50.602;8.692;2023-12-14T02:37:45;5.40;99.90
15182;DHT22;7692;50.602;8.692;2023-12-14T02:40:14;5.40;99.90
15182;DHT22;7692;50.602;8.692;2023-12-14T02:42:42;5.40;99.90
15182;DHT22;7692;50.602;8.692;2023-12-14T02:45:10;5.40;99.90
15182;DHT22;7692;50.602;8.692;2023-12-14T02:47:38;5.40;99.90
15182;DHT22;7692;50.602;8.692;2023-12-14T02:50:07;5.40;99.90
15182;DHT22;7692;50.602;8.692;2023-12-14T02:52:35;5.40;99.90
15182;DHT22;7692;50.602;8.692;2023-12-14T02:55:05;5.30;99.90
15182;DHT22;7692;50.602;8.692;2023-12-14T02:57:34;5.30;99.90
15182;DHT22;7692;50.602;8.692;2023-12-14T03:00:03;5.30;99.90
15182;DHT22;7692;50.602;8.692;2023-12-14T03:02:31;5.30;99.90
15182;DHT22;7692;50.602;8.692;2023-12-14T03:05:00;5.30;99.90
15182;DHT22;7692;50.602;8.692;2023-12-14T03:07:28;5.30;99.90
15182;DHT22;7692;50.602;8.692;2023-12-14T03:09:56;5.30;99.90
15182;DHT22;7692;50.602;8.692;2023-12-14T03:12:24;5.30;99.90
15182;DHT22;7692;50.602;8.692;2023-12-14T03:14:53;5.30;99.90
15182;DHT22;7692;50.602;8.692;2023-12-14T03:17:21;5.30;99.90
15182;DHT22;7692;50.602;8.692;2023-12-14T03:19:49;5.30;99.90
15182;DHT22;7692;50.602;8.692;2023-12-14T03:22:17;5.20;99.90
15182;DHT22;7692;50.602;8.692;2023-12-14T03:24:45;5.20;99.90
15182;DHT22;7692;50.602;8.692;2023-12-14T03:27:13;5.20;99.90
15182;DHT22;7692;50.602;8.692;2023-12-14T03:29:41;5.20;99.90
15182;DHT22;7692;50.602;8.692;2023-12-14T03:32:11;5.20;99.90
15182;DHT22;7692;50.602;8.692;2023-12-14T03:34:39;5.20;99.90
15182;DHT22;7692;50.602;8.692;2023-12-14T03:37:07;5.20;99.90
15182;DHT22;7692;50.602;8.692;2023-12-14T03:39:35;5.10;99.90
15182;DHT22;7692;50.602;8.692;2023-12-14T03:42:04;5.10;99.90
15182;DHT22;7692;50.602;8.692;2023-12-14T03:44:32;5.20;99.90
15182;DHT22;7692;50.602;8.692;2023-12-14T03:47:00;5.20;99.90
15182;DHT22;7692;50.602;8.692;2023-12-14T03:49:30;5.20;99.90
15182;DHT22;7692;50.602;8.692;2023-12-14T03:51:58;5.20;99.90
15182;DHT22;7692;50.602;8.692;2023-12-14T03:54:26;5.20;99.90
15182;DHT22;7692;50.602;8.692;2023-12-14T03:56:54;5.20;99.90
15182;DHT22;7692;50.602;8.692;2023-12-14T03:59:23;5.10;99.90
15182;DHT22;7692;50.602;8.692;2023-12-14T04:01:51;5.10;99.90
15182;DHT22;7692;50.602;8.692;2023-12-14T04:04:19;5.10;99.90
15182;DHT22;7692;50.602;8.692;2023-12-14T04:06:48;5.10;99.90
15182;DHT22;7692;50.602;8.692;2023-12-14T04:09:18;5.10;99.90
15182;DHT22;7692;50.602;8.692;2023-12-14T04:11:46;5.00;99.90
15182;DHT22;7692;50.602;8.692;2023-12-14T04:14:14;5.00;99.90
15182;DHT22;7692;50.602;8.692;2023-12-14T04:16:42;5.00;99.90
15182;DHT22;7692;50.602;8.692;2023-12-14T04:19:10;5.00;99.90
15182;DHT22;7692;50.602;8.692;2023-12-14T04:21:38;5.00;99.90
15182;DHT22;7692;50.602;8.692;2023-12-14T04:24:08;5.00;99.90
15182;DHT22;7692;50.602;8.692;2023-12-14T04:26:39;5.00;99.90
15182;DHT22;7692;50.602;8.692;2023-12-14T04:29:07;5.00;99.90
15182;DHT22;7692;50.602;8.692;2023-12-14T04:31:35;5.00;99.90
15182;DHT22;7692;50.602;8.692;2023-12-14T04:34:03;4.90;99.90
15182;DHT22;7692;50.602;8.692;2023-12-14T04:36:32;4.90;99.90
15182;DHT22;7692;50.602;8.692;2023-12-14T04:39:00;4.90;99.90
15182;DHT22;7692;50.602;8.692;2023-12-14T04:41:29;4.90;99.90
15182;DHT22;7692;50.602;8.692;2023-12-14T04:43:57;5.00;99.90
15182;DHT22;7692;50.602;8.692;2023-12-14T04:46:25;5.00;99.90
15182;DHT22;7692;50.602;8.692;2023-12-14T04:48:53;5.00;99.90
15182;DHT22;7692;50.602;8.692;2023-12-14T04:51:21;5.00;99.90
15182;DHT22;7692;50.602;8.692;2023-12-14T04:53:50;5.00;99.90
15182;DHT22;7692;50.602;8.692;2023-12-14T04:56:18;5.00;99.90
15182;DHT22;7692;50.602;8.692;2023-12-14T04:58:47;5.00;99.90
15182;DHT22;7692;50.602;8.692;2023-12-14T05:01:15;5.00;99.90
15182;DHT22;7692;50.602;8.692;2023-12-14T05:03:43;4.90;99.90
15182;DHT22;7692;50.602;8.692;2023-12-14T05:06:11;4.90;99.90
15182;DHT22;7692;50.602;8.692;2023-12-14T05:08:40;4.90;99.90
15182;DHT22;7692;50.602;8.692;2023-12-14T05:11:08;4.90;99.90
15182;DHT22;7692;50.602;8.692;2023-12-14T05:13:36;4.90;99.90
15182;DHT22;7692;50.602;8.692;2023-12-14T05:16:13;4.90;99.90
15182;DHT22;7692;50.602;8.692;2023-12-14T05:18:42;5.00;99.90
15182;DHT22;7692;50.602;8.692;2023-12-14T05:21:16;5.00;99.90
15182;DHT22;7692;50.602;8.692;2023-12-14T05:23:44;5.00;99.90
15182;DHT22;7692;50.602;8.692;2023-12-14T05:26:12;5.00;99.90
15182;DHT22;7692;50.602;8.692;2023-12-14T05:28:41;5.00;99.90
15182;DHT22;7692;50.602;8.692;2023-12-14T05:31:09;5.00;99.90
15182;DHT22;7692;50.602;8.692;2023-12-14T05:33:39;4.90;99.90
15182;DHT22;7692;50.602;8.692;2023-12-14T05:36:08;4.90;99.90
15182;DHT22;7692;50.602;8.692;2023-12-14T05:38:38;4.90;99.90
15182;DHT22;7692;50.602;8.692;2023-12-14T05:41:06;4.90;99.90
15182;DHT22;7692;50.602;8.692;2023-12-14T05:43:35;4.90;99.90
15182;DHT22;7692;50.602;8.692;2023-12-14T05:46:04;4.90;99.90
15182;DHT22;7692;50.602;8.692;2023-12-14T05:48:32;4.90;99.90
15182;DHT22;7692;50.602;8.692;2023-12-14T05:51:01;5.00;99.90
15182;DHT22;7692;50.602;8.692;2023-12-14T05:53:29;5.00;99.90
15182;DHT22;7692;50.602;8.692;2023-12-14T05:55:58;5.00;99.90
15182;DHT22;7692;50.602;8.692;2023-12-14T05:58:27;5.00;99.90
15182;DHT22;7692;50.602;8.692;2023-12-14T06:00:55;5.00;99.90
15182;DHT22;7692;50.602;8.692;2023-12-14T06:03:23;5.00;99.90
15182;DHT22;7692;50.602;8.692;2023-12-14T06:05:52;5.00;99.90
15182;DHT22;7692;50.602;8.692;2023-12-14T06:08:22;5.00;99.90
15182;DHT22;7692;50.602;8.692;2023-12-14T06:10:50;5.00;99.90
15182;DHT22;7692;50.602;8.692;2023-12-14T06:13:20;5.00;99.90
15182;DHT22;7692;50.602;8.692;2023-12-14T06:15:48;5.00;99.90
15182;DHT22;7692;50.602;8.692;2023-12-14T06:18:16;5.00;99.90
15182;DHT22;7692;50.602;8.692;2023-12-14T06:20:45;5.10;99.90
15182;DHT22;7692;50.602;8.692;2023-12-14T06:23:13;5.10;99.90
15182;DHT22;7692;50.602;8.692;2023-12-14T06:25:42;5.10;99.90
15182;DHT22;7692;50.602;8.692;2023-12-14T06:28:10;5.10;99.90
15182;DHT22;7692;50.602;8.692;2023-12-14T06:30:39;5.10;99.90
15182;DHT22;7692;50.602;8.692;2023-12-14T06:33:07;5.10;99.90
15182;DHT22;7692;50.602;8.692;2023-12-14T06:35:38;5.10;99.90
15182;DHT22;7692;50.602;8.692;2023-12-14T06:38:06;5.10;99.90
15182;DHT22;7692;50.602;8.692;2023-12-14T06:40:35;5.10;99.90
15182;DHT22;7692;50.602;8.692;2023-12-14T06:43:05;5.10;99.90
15182;DHT22;7692;50.602;8.692;2023-12-14T06:45:36;5.10;99.90
15182;DHT22;7692;50.602;8.692;2023-12-14T06:48:05;5.10;99.90
15182;DHT22;7692;50.602;8.692;2023-12-14T06:50:33;5.10;99.90
15182;DHT22;7692;50.602;8.692;2023-12-14T06:53:01;5.10;99.90
15182;DHT22;7692;50.602;8.692;2023-12-14T06:55:30;5.10;99.90
15182;DHT22;7692;50.602;8.692;2023-12-14T06:57:58;5.10;99.90
15182;DHT22;7692;50.602;8.692;2023-12-14T07:00:27;5.20;99.90
15182;DHT22;7692;50.602;8.692;2023-12-14T07:02:56;5.20;99.90
15182;DHT22;7692;50.602;8.692;2023-12-14T07:05:24;5.20;99.90
15182;DHT22;7692;50.602;8.692;2023-12-14T07:07:53;5.20;99.90
15182;DHT22;7692;50.602;8.692;2023-12-14T07:10:21;5.20;99.90
15182;DHT22;7692;50.602;8.692;2023-12-14T07:12:49;5.30;99.90
15182;DHT22;7692;50.602;8.692;2023-12-14T07:15:17;5.30;99.90
15182;DHT22;7692;50.602;8.692;2023-12-14T07:17:47;5.30;99.90
15182;DHT22;7692;50.602;8.692;2023-12-14T07:20:15;5.30;99.90
15182;DHT22;7692;50.602;8.692;2023-12-14T07:22:43;5.40;99.90
15182;DHT22;7692;50.602;8.692;2023-12-14T07:25:11;5.30;99.90
15182;DHT22;7692;50.602;8.692;2023-12-14T07:27:40;5.30;99.90
15182;DHT22;7692;50.602;8.692;2023-12-14T07:30:09;5.40;99.90
15182;DHT22;7692;50.602;8.692;2023-12-14T07:32:40;5.40;99.90
15182;DHT22;7692;50.602;8.692;2023-12-14T07:35:09;5.40;99.90
15182;DHT22;7692;50.602;8.692;2023-12-14T07:37:38;5.40;99.90
15182;DHT22;7692;50.602;8.692;2023-12-14T07:40:07;5.40;99.90
15182;DHT22;7692;50.602;8.692;2023-12-14T07:42:35;5.40;99.90
15182;DHT22;7692;50.602;8.692;2023-12-14T07:45:04;5.40;99.90
15182;DHT22;7692;50.602;8.692;2023-12-14T07:47:32;5.40;99.90
15182;DHT22;7692;50.602;8.692;2023-12-14T07:50:00;5.50;99.90
15182;DHT22;7692;50.602;8.692;2023-12-14T07:52:30;5.50;99.90
15182;DHT22;7692;50.602;8.692;2023-12-14T07:54:58;5.50;99.90
15182;DHT22;7692;50.602;8.692;2023-12-14T07:57:26;5.50;99.90
15182;DHT22;7692;50.602;8.692;2023-12-14T07:59:55;5.40;99.90
15182;DHT22;7692;50.602;8.692;2023-12-14T08:02:23;5.50;99.90
15182;DHT22;7692;50.602;8.692;2023-12-14T08:04:51;5.50;99.90
15182;DHT22;7692;50.602;8.692;2023-12-14T08:07:20;5.50;99.90
15182;DHT22;7692;50.602;8.692;2023-12-14T08:09:49;5.50;99.90
15182;DHT22;7692;50.602;8.692;2023-12-14T08:12:17;5.50;99.90
15182;DHT22;7692;50.602;8.692;2023-12-14T08:14:45;5.50;99.90
15182;DHT22;7692;50.602;8.692;2023-12-14T08:17:13;5.60;99.90
15182;DHT22;7692;50.602;8.692;2023-12-14T08:19:42;5.60;99.90
15182;DHT22;7692;50.602;8.692;2023-12-14T08:22:11;5.60;99.90
15182;DHT22;7692;50.602;8.692;2023-12-14T08:24:39;5.60;99.90
15182;DHT22;7692;50.602;8.692;2023-12-14T08:27:09;5.70;99.90
15182;DHT22;7692;50.602;8.692;2023-12-14T08:29:37;5.70;99.90
15182;DHT22;7692;50.602;8.692;2023-12-14T08:32:06;5.70;99.90
15182;DHT22;7692;50.602;8.692;2023-12-14T08:34:34;5.70;99.90
15182;DHT22;7692;50.602;8.692;2023-12-14T08:37:03;5.70;99.90
15182;DHT22;7692;50.602;8.692;2023-12-14T08:39:31;5.70;99.90
15182;DHT22;7692;50.602;8.692;2023-12-14T08:41:59;5.70;99.90
15182;DHT22;7692;50.602;8.692;2023-12-14T08:44:29;5.80;99.90
15182;DHT22;7692;50.602;8.692;2023-12-14T08:46:57;5.80;99.90
15182;DHT22;7692;50.602;8.692;2023-12-14T08:49:26;5.80;99.90
15182;DHT22;7692;50.602;8.692;2023-12-14T08:51:54;5.80;99.90
15182;DHT22;7692;50.602;8.692;2023-12-14T08:54:22;5.80;99.90
15182;DHT22;7692;50.602;8.692;2023-12-14T08:56:50;5.90;99.90
15182;DHT22;7692;50.602;8.692;2023-12-14T08:59:18;5.90;99.90
15182;DHT22;7692;50.602;8.692;2023-12-14T09:01:48;5.90;99.90
15182;DHT22;7692;50.602;8.692;2023-12-14T09:04:17;5.90;99.90
15182;DHT22;7692;50.602;8.692;2023-12-14T09:06:45;5.90;99.90
15182;DHT22;7692;50.602;8.692;2023-12-14T09:09:13;5.90;99.90
15182;DHT22;7692;50.602;8.692;2023-12-14T09:11:41;6.00;99.90
15182;DHT22;7692;50.602;8.692;2023-12-14T09:14:09;6.00;99.90
15182;DHT22;7692;50.602;8.692;2023-12-14T09:16:37;6.00;99.90
15182;DHT22;7692;50.602;8.692;2023-12-14T09:19:06;6.00;99.90
15182;DHT22;7692;50.602;8.692;2023-12-14T09:21:35;6.10;99.90
15182;DHT22;7692;50.602;8.692;2023-12-14T09:24:12;6.10;99.90
15182;DHT22;7692;50.602;8.692;2023-12-14T09:26:40;6.10;99.90
15182;DHT22;7692;50.602;8.692;2023-12-14T09:29:08;6.10;99.90
15182;DHT22;7692;50.602;8.692;2023-12-14T09:31:37;6.20;99.90
15182;DHT22;7692;50.602;8.692;2023-12-14T09:34:33;6.20;99.90
15182;DHT22;7692;50.602;8.692;2023-12-14T09:37:05;6.20;99.90
15182;DHT22;7692;50.602;8.692;2023-12-14T09:39:34;6.20;99.90
15182;DHT22;7692;50.602;8.692;2023-12-14T09:42:03;6.20;99.90
15182;DHT22;7692;50.602;8.692;2023-12-14T09:44:33;6.20;99.90
15182;DHT22;7692;50.602;8.692;2023-12-14T09:47:02;6.20;99.90
15182;DHT22;7692;50.602;8.692;2023-12-14T09:49:36;6.30;99.90
15182;DHT22;7692;50.602;8.692;2023-12-14T09:52:05;6.30;99.90
15182;DHT22;7692;50.602;8.692;2023-12-14T09:54:33;6.30;99.90
15182;DHT22;7692;50.602;8.692;2023-12-14T09:57:01;6.30;99.90
15182;DHT22;7692;50.602;8.692;2023-12-14T09:59:29;6.30;99.90
15182;DHT22;7692;50.602;8.692;2023-12-14T10:02:09;6.30;99.90
15182;DHT22;7692;50.602;8.692;2023-12-14T10:04:39;6.30;99.90
15182;DHT22;7692;50.602;8.692;2023-12-14T10:07:08;6.30;99.90
15182;DHT22;7692;50.602;8.692;2023-12-14T10:09:37;6.40;99.90
15182;DHT22;7692;50.602;8.692;2023-12-14T10:12:07;6.30;99.90
15182;DHT22;7692;50.602;8.692;2023-12-14T10:14:36;6.40;99.90
15182;DHT22;7692;50.602;8.692;2023-12-14T10:17:17;6.50;99.90
15182;DHT22;7692;50.602;8.692;2023-12-14T10:19:47;6.50;99.90
15182;DHT22;7692;50.602;8.692;2023-12-14T10:22:17;6.60;99.90
15182;DHT22;7692;50.602;8.692;2023-12-14T10:24:46;6.60;99.90
15182;DHT22;7692;50.602;8.692;2023-12-14T10:27:15;6.60;99.90
15182;DHT22;7692;50.602;8.692;2023-12-14T10:29:44;6.80;99.90
15182;DHT22;7692;50.602;8.692;2023-12-14T10:32:13;6.80;99.90
15182;DHT22;7692;50.602;8.692;2023-12-14T10:34:41;6.80;99.90
15182;DHT22;7692;50.602;8.692;2023-12-14T10:37:12;6.80;99.90
15182;DHT22;7692;50.602;8.692;2023-12-14T10:39:42;6.90;99.90
15182;DHT22;7692;50.602;8.692;2023-12-14T10:42:13;6.90;99.90
15182;DHT22;7692;50.602;8.692;2023-12-14T10:44:49;6.90;99.90
15182;DHT22;7692;50.602;8.692;2023-12-14T10:47:22;7.00;99.90
15182;DHT22;7692;50.602;8.692;2023-12-14T10:49:50;7.00;99.90
15182;DHT22;7692;50.602;8.692;2023-12-14T10:52:22;7.00;99.90
15182;DHT22;7692;50.602;8.692;2023-12-14T10:54:53;7.10;99.90
15182;DHT22;7692;50.602;8.692;2023-12-14T10:57:24;7.10;99.90
15182;DHT22;7692;50.602;8.692;2023-12-14T10:59:57;7.20;99.90
15182;DHT22;7692;50.602;8.692;2023-12-14T11:02:25;7.20;99.90
15182;DHT22;7692;50.602;8.692;2023-12-14T11:04:54;7.20;99.90
15182;DHT22;7692;50.602;8.692;2023-12-14T11:07:47;7.20;99.90
15182;DHT22;7692;50.602;8.692;2023-12-14T11:10:20;7.20;99.90
15182;DHT22;7692;50.602;8.692;2023-12-14T11:13:00;7.20;99.90
15182;DHT22;7692;50.602;8.692;2023-12-14T11:15:29;7.20;99.90
15182;DHT22;7692;50.602;8.692;2023-12-14T11:18:22;7.20;99.90
15182;DHT22;7692;50.602;8.692;2023-12-14T11:20:57;7.10;99.90
15182;DHT22;7692;50.602;8.692;2023-12-14T11:23:36;7.20;99.90
15182;DHT22;7692;50.602;8.692;2023-12-14T11:26:08;7.20;99.90
15182;DHT22;7692;50.602;8.692;2023-12-14T11:28:39;7.20;99.90
15182;DHT22;7692;50.602;8.692;2023-12-14T11:31:10;7.20;99.90
15182;DHT22;7692;50.602;8.692;2023-12-14T11:33:39;7.20;99.90
15182;DHT22;7692;50.602;8.692;2023-12-14T11:36:11;7.20;99.90
15182;DHT22;7692;50.602;8.692;2023-12-14T11:38:42;7.20;99.90
15182;DHT22;7692;50.602;8.692;2023-12-14T11:41:11;7.20;99.90
15182;DHT22;7692;50.602;8.692;2023-12-14T11:43:40;7.20;99.90
15182;DHT22;7692;50.602;8.692;2023-12-14T11:46:09;7.20;99.90
15182;DHT22;7692;50.602;8.692;2023-12-14T11:48:37;7.20;99.90
15182;DHT22;7692;50.602;8.692;2023-12-14T11:51:06;7.20;99.90
15182;DHT22;7692;50.602;8.692;2023-12-14T11:53:35;7.20;99.90
15182;DHT22;7692;50.602;8.692;2023-12-14T11:56:08;7.20;99.90
15182;DHT22;7692;50.602;8.692;2023-12-14T11:58:40;7.10;99.90
15182;DHT22;7692;50.602;8.692;2023-12-14T12:01:13;7.10;99.90
15182;DHT22;7692;50.602;8.692;2023-12-14T12:03:42;7.20;99.90
15182;DHT22;7692;50.602;8.692;2023-12-14T12:06:20;7.20;99.90
15182;DHT22;7692;50.602;8.692;2023-12-14T12:08:49;7.20;99.90
15182;DHT22;7692;50.602;8.692;2023-12-14T12:11:19;7.20;99.90
15182;DHT22;7692;50.602;8.692;2023-12-14T12:13:52;7.20;99.90
15182;DHT22;7692;50.602;8.692;2023-12-14T12:16:21;7.10;99.90
15182;DHT22;7692;50.602;8.692;2023-12-14T12:18:50;7.10;99.90
15182;DHT22;7692;50.602;8.692;2023-12-14T12:21:19;7.10;99.90
15182;DHT22;7692;50.602;8.692;2023-12-14T12:23:47;7.10;99.90
15182;DHT22;7692;50.602;8.692;2023-12-14T12:26:16;7.10;99.90
15182;DHT22;7692;50.602;8.692;2023-12-14T12:28:45;7.10;99.90
15182;DHT22;7692;50.602;8.692;2023-12-14T12:31:15;7.10;99.90
15182;DHT22;7692;50.602;8.692;2023-12-14T12:33:44;7.10;99.90
15182;DHT22;7692;50.602;8.692;2023-12-14T12:36:12;7.20;99.90
15182;DHT22;7692;50.602;8.692;2023-12-14T12:38:40;7.20;99.90
15182;DHT22;7692;50.602;8.692;2023-12-14T12:41:08;7.20;99.90
15182;DHT22;7692;50.602;8.692;2023-12-14T12:43:36;7.10;99.90
15182;DHT22;7692;50.602;8.692;2023-12-14T12:46:06;7.10;99.90
15182;DHT22;7692;50.602;8.692;2023-12-14T12:48:35;7.10;99.90
15182;DHT22;7692;50.602;8.692;2023-12-14T12:51:04;7.10;99.90
15182;DHT22;7692;50.602;8.692;2023-12-14T12:53:32;7.10;99.90
15182;DHT22;7692;50.602;8.692;2023-12-14T12:56:01;7.10;99.90
15182;DHT22;7692;50.602;8.692;2023-12-14T12:58:29;7.10;99.90
15182;DHT22;7692;50.602;8.692;2023-12-14T13:00:59;7.10;99.90
15182;DHT22;7692;50.602;8.692;2023-12-14T13:03:29;7.00;99.90
15182;DHT22;7692;50.602;8.692;2023-12-14T13:05:57;6.90;99.90
15182;DHT22;7692;50.602;8.692;2023-12-14T13:08:25;6.90;99.90
15182;DHT22;7692;50.602;8.692;2023-12-14T13:10:53;6.80;99.90
15182;DHT22;7692;50.602;8.692;2023-12-14T13:13:22;6.80;99.90
15182;DHT22;7692;50.602;8.692;2023-12-14T13:15:50;6.80;99.90
15182;DHT22;7692;50.602;8.692;2023-12-14T13:18:21;6.70;99.90
15182;DHT22;7692;50.602;8.692;2023-12-14T13:20:51;6.70;99.90
15182;DHT22;7692;50.602;8.692;2023-12-14T13:23:19;6.70;99.90
15182;DHT22;7692;50.602;8.692;2023-12-14T13:25:47;6.70;99.90
15182;DHT22;7692;50.602;8.692;2023-12-14T13:28:16;6.70;99.90
15182;DHT22;7692;50.602;8.692;2023-12-14T13:30:44;6.70;99.90
15182;DHT22;7692;50.602;8.692;2023-12-14T13:33:13;6.70;99.90
15182;DHT22;7692;50.602;8.692;2023-12-14T13:35:41;6.70;99.90
15182;DHT22;7692;50.602;8.692;2023-12-14T13:38:11;6.70;99.90
15182;DHT22;7692;50.602;8.692;2023-12-14T13:40:40;6.80;99.90
15182;DHT22;7692;50.602;8.692;2023-12-14T13:43:08;6.70;99.90
15182;DHT22;7692;50.602;8.692;2023-12-14T13:45:38;6.70;99.90
15182;DHT22;7692;50.602;8.692;2023-12-14T13:48:09;6.70;99.90
15182;DHT22;7692;50.602;8.692;2023-12-14T13:50:37;6.70;99.90
15182;DHT22;7692;50.602;8.692;2023-12-14T13:53:05;6.70;99.90
15182;DHT22;7692;50.602;8.692;2023-12-14T13:55:37;6.70;99.90
15182;DHT22;7692;50.602;8.692;2023-12-14T13:58:06;6.60;99.90
15182;DHT22;7692;50.602;8.692;2023-12-14T14:00:34;6.60;99.90
15182;DHT22;7692;50.602;8.692;2023-12-14T14:03:04;6.60;99.90
15182;DHT22;7692;50.602;8.692;2023-12-14T14:05:32;6.60;99.90
15182;DHT22;7692;50.602;8.692;2023-12-14T14:08:01;6.60;99.90
15182;DHT22;7692;50.602;8.692;2023-12-14T14:10:30;6.50;99.90
15182;DHT22;7692;50.602;8.692;2023-12-14T14:13:00;6.50;99.90
15182;DHT22;7692;50.602;8.692;2023-12-14T14:15:30;6.50;99.90
15182;DHT22;7692;50.602;8.692;2023-12-14T14:17:58;6.50;99.90
15182;DHT22;7692;50.602;8.692;2023-12-14T14:20:27;6.50;99.90
15182;DHT22;7692;50.602;8.692;2023-12-14T14:22:56;6.40;99.90
15182;DHT22;7692;50.602;8.692;2023-12-14T14:25:26;6.40;99.90
15182;DHT22;7692;50.602;8.692;2023-12-14T14:27:54;6.40;99.90
15182;DHT22;7692;50.602;8.692;2023-12-14T14:30:24;6.50;99.90
15182;DHT22;7692;50.602;8.692;2023-12-14T14:32:53;6.40;99.90
15182;DHT22;7692;50.602;8.692;2023-12-14T14:35:21;6.40;99.90
15182;DHT22;7692;50.602;8.692;2023-12-14T14:37:50;6.40;99.90
15182;DHT22;7692;50.602;8.692;2023-12-14T14:40:18;6.40;99.90
15182;DHT22;7692;50.602;8.692;2023-12-14T14:42:46;6.40;99.90
15182;DHT22;7692;50.602;8.692;2023-12-14T14:45:14;6.40;99.90
15182;DHT22;7692;50.602;8.692;2023-12-14T14:47:44;6.40;99.90
15182;DHT22;7692;50.602;8.692;2023-12-14T14:50:12;6.40;99.90
15182;DHT22;7692;50.602;8.692;2023-12-14T14:52:40;6.30;99.90
15182;DHT22;7692;50.602;8.692;2023-12-14T14:55:09;6.30;99.90
15182;DHT22;7692;50.602;8.692;2023-12-14T14:57:37;6.20;99.90
15182;DHT22;7692;50.602;8.692;2023-12-14T15:00:06;6.20;99.90
15182;DHT22;7692;50.602;8.692;2023-12-14T15:02:34;6.20;99.90
15182;DHT22;7692;50.602;8.692;2023-12-14T15:05:05;6.20;99.90
15182;DHT22;7692;50.602;8.692;2023-12-14T15:07:33;6.20;99.90
15182;DHT22;7692;50.602;8.692;2023-12-14T15:10:01;6.10;99.90
15182;DHT22;7692;50.602;8.692;2023-12-14T15:12:29;6.00;99.90
15182;DHT22;7692;50.602;8.692;2023-12-14T15:14:57;6.10;99.90
15182;DHT22;7692;50.602;8.692;2023-12-14T15:17:25;6.10;99.90
15182;DHT22;7692;50.602;8.692;2023-12-14T15:19:54;6.00;99.90
15182;DHT22;7692;50.602;8.692;2023-12-14T15:22:23;6.00;99.90
15182;DHT22;7692;50.602;8.692;2023-12-14T15:24:51;6.00;99.90
15182;DHT22;7692;50.602;8.692;2023-12-14T15:27:20;6.00;99.90
15182;DHT22;7692;50.602;8.692;2023-12-14T15:29:48;6.00;99.90
15182;DHT22;7692;50.602;8.692;2023-12-14T15:32:17;5.90;99.90
15182;DHT22;7692;50.602;8.692;2023-12-14T15:34:45;5.90;99.90
15182;DHT22;7692;50.602;8.692;2023-12-14T15:37:13;5.90;99.90
15182;DHT22;7692;50.602;8.692;2023-12-14T15:39:42;5.90;99.90
15182;DHT22;7692;50.602;8.692;2023-12-14T15:42:15;5.90;99.90
15182;DHT22;7692;50.602;8.692;2023-12-14T15:44:44;5.90;99.90
15182;DHT22;7692;50.602;8.692;2023-12-14T15:47:12;5.90;99.90
15182;DHT22;7692;50.602;8.692;2023-12-14T15:49:42;5.80;99.90
15182;DHT22;7692;50.602;8.692;2023-12-14T15:52:10;5.80;99.90
15182;DHT22;7692;50.602;8.692;2023-12-14T15:54:38;5.80;99.90
15182;DHT22;7692;50.602;8.692;2023-12-14T15:57:07;5.80;99.90
15182;DHT22;7692;50.602;8.692;2023-12-14T15:59:35;5.80;99.90
15182;DHT22;7692;50.602;8.692;2023-12-14T16:02:05;5.80;99.90
15182;DHT22;7692;50.602;8.692;2023-12-14T16:04:33;5.80;99.90
15182;DHT22;7692;50.602;8.692;2023-12-14T16:07:00;5.80;99.90
15182;DHT22;7692;50.602;8.692;2023-12-14T16:09:31;5.70;99.90
15182;DHT22;7692;50.602;8.692;2023-12-14T16:12:00;5.70;99.90
15182;DHT22;7692;50.602;8.692;2023-12-14T16:14:32;5.70;99.90